Flight Track Log - Related Links

Times and Time Zones

All times are in EDT time to prevent confusion due to time zone crossing. See the EJA941 flight status page for this flight to view local times or setup timezone preferences in your user account.

Time Position Orientation Groundspeed Altitude Reporting Facility
EDT Latitude Longitude Course Direction KTS MPH feet Rate Location/Type
Wed 11:19:48 AM 33.8544 -81.0694 185° South 219 252 5,700  Level Jacksonville Center
Wed 11:20:48 AM 33.7919 -81.0733 183° South 224 258 8,500 2,400 Climbing Jacksonville Center
Wed 11:21:48 AM 33.7275 -81.0797 185° South 237 273 10,500 1,934 Climbing Jacksonville Center
Wed 11:22:49 AM 33.6503 -81.0861 184° South 262 302 12,400 1,750 Climbing Jacksonville Center
Wed 11:23:48 AM 33.5628 -81.0931 184° South 294 338 14,000 1,613 Climbing Jacksonville Center
Wed 11:24:00 AM 33.1426 -81.1500 180° South  Level FlightAware Approximate
Wed 11:24:48 AM 33.4689 -81.0997 183° South 325 374 15,600  Level Jacksonville Center
Wed 11:25:00 AM 33.0106 -81.1523 185° South  Level FlightAware Approximate
Wed 11:25:48 AM 33.3667 -81.1069 183° South 350 403 17,200  Level Jacksonville Center
Wed 11:26:48 AM 33.2667 -81.1164 185° South 364 419 18,700 1,550 Climbing Jacksonville Center
Wed 11:27:48 AM 33.1625 -81.1258 184° South 364 419 20,300 1,600 Climbing Jacksonville Center
Wed 11:28:48 AM 33.0583 -81.1328 183° South 364 419 21,900 1,600 Climbing Jacksonville Center
Wed 11:29:48 AM 32.9497 -81.1400 183° South 376 433 23,500 1,600 Climbing Jacksonville Center
Wed 11:30:48 AM 32.8433 -81.1494 184° South 382 440 25,100 1,600 Climbing Jacksonville Center
Wed 11:31:48 AM 32.7350 -81.1564 183° South 388 447 26,700 1,750 Climbing Jacksonville Center
Wed 11:32:48 AM 32.6161 -81.1686 185° South 388 447 28,600 1,700 Climbing Jacksonville Center
Wed 11:33:48 AM 32.5078 -81.1781 184° South 393 452 30,100 1,400 Climbing Jacksonville Center
Wed 11:34:48 AM 32.4058 -81.2069 193° South 403 464 31,400 1,450 Climbing Jacksonville Center
Wed 11:35:48 AM 32.2978 -81.2458 197° South 414 476 33,000 1,600 Climbing Jacksonville Center
Wed 11:36:48 AM 32.1875 -81.2797 195° South 414 476 34,600 1,600 Climbing Jacksonville Center
Wed 11:37:48 AM 32.0794 -81.3161 196° South 414 476 36,200 1,537 Climbing Jacksonville Center
Wed 11:38:49 AM 31.9692 -81.3522 196° South 414 476 37,700 1,250 Climbing Jacksonville Center
Wed 11:39:48 AM 31.8467 -81.3908 195° South 414 476 38,700 750 Climbing Jacksonville Center
Wed 11:40:49 AM 31.7406 -81.4244 195° South 426 490 39,200 550 Climbing Jacksonville Center
Wed 11:41:48 AM 31.6072 -81.4681 196° South 444 511 39,800 403 Climbing Jacksonville Center
Wed 11:42:48 AM 31.4783 -81.5089 195° South 477 549 40,000 99 Climbing Jacksonville Center
Wed 11:43:49 AM 31.3472 -81.5472 194° South 483 556 40,000  Level Jacksonville Center
Wed 11:44:48 AM 31.2075 -81.5711 188° South 504 580 40,000  Level Jacksonville Center
Wed 11:45:48 AM 31.0658 -81.5903 187° South 519 597 40,000  Level Jacksonville Center
Wed 11:46:48 AM 30.9239 -81.6114 187° South 519 597 40,000  Level Jacksonville Center
Wed 11:47:48 AM 30.7844 -81.6303 187° South 519 597 40,000  Level Jacksonville Center
Wed 11:48:48 AM 30.6592 -81.6464 186° South 519 597 40,000  Level Jacksonville Center
Wed 11:49:48 AM 30.5175 -81.6653 187° South 519 597 40,000  Level Jacksonville Center
Wed 11:50:49 AM 30.3778 -81.6814 186° South 519 597 40,000 -50 Level Jacksonville Center
Wed 11:51:49 AM 30.2317 -81.7000 186° South 527 606 39,900  Descending Jacksonville Center
Wed 11:52:49 AM 30.0794 -81.7261 188° South 520 598 40,000 50 Climbing Jacksonville Center
Wed 11:53:49 AM 29.9525 -81.7467 188° South 504 580 40,000  Level Jacksonville Center
Wed 11:54:49 AM 29.8128 -81.7650 186° South 504 580 40,000  Level Jacksonville Center
Wed 11:55:49 AM 29.6708 -81.7858 187° South 504 580 40,000  Level Jacksonville Center
Wed 11:56:49 AM 29.5311 -81.8089 188° South 509 586 40,000  Level Jacksonville Center
Wed 11:57:49 AM 29.3894 -81.8272 186° South 509 586 40,000  Level Jacksonville Center
Wed 11:58:49 AM 29.2456 -81.8453 186° South 515 593 40,000  Level Jacksonville Center
Wed 11:59:49 AM 29.0911 -81.8636 186° South 515 593 40,000  Level Jacksonville Center
Wed 12:02:06 PM 28.7686 -81.9092 187° South 516 594 40,000  Level Miami Center
Wed 12:03:06 PM 28.6283 -81.9289 187° South 516 594 40,000  Level Miami Center
Wed 12:04:06 PM 28.4836 -81.9483 187° South 516 594 40,000  Level Miami Center
Wed 12:05:06 PM 28.3392 -81.9653 186° South 521 600 40,000  Level Miami Center
Wed 12:06:06 PM 28.1944 -81.9892 188° South 527 606 40,000  Level Miami Center
Wed 12:07:06 PM 28.0475 -82.0108 187° South 527 606 40,000  Level Miami Center
Wed 12:08:06 PM 27.9058 -82.0067 179° South 521 600 40,000  Level Miami Center
Wed 12:09:06 PM 27.7775 -81.9797 169° South 512 589 40,000  Level Miami Center
Wed 12:10:06 PM 27.6367 -81.9500 169° South 522 601 40,000  Level Miami Center
Wed 12:11:06 PM 27.4811 -81.9175 169° South 522 601 40,000  Level Miami Center
Wed 12:12:06 PM 27.3403 -81.8903 170° South 522 601 40,000  Level Miami Center
Wed 12:13:06 PM 27.1953 -81.8581 169° South 522 601 40,000  Level Miami Center
Wed 12:14:06 PM 27.0667 -81.8317 170° South 522 601 40,000  Level Miami Center
Wed 12:15:06 PM 26.9236 -81.8047 170° South 522 601 40,000 250 Level Miami Center
Wed 12:16:06 PM 26.7828 -81.7753 169° South 522 601 40,500 500 Climbing Miami Center
Wed 12:17:06 PM 26.6439 -81.7486 170° South 516 594 41,000 250 Climbing Miami Center
Wed 12:18:06 PM 26.5028 -81.7172 169° South 516 594 41,000  Level Miami Center
Wed 12:19:06 PM 26.3494 -81.6856 170° South 516 594 41,000  Level Miami Center
Wed 12:20:06 PM 26.2106 -81.6567 169° South 516 594 41,000  Level Miami Center
Wed 12:21:06 PM 26.0672 -81.6278 170° South 523 602 41,000  Level Miami Center
Wed 12:22:06 PM 25.9283 -81.5992 170° South 518 596 41,000  Level Miami Center
Wed 12:23:06 PM 25.7853 -81.5728 171° South 518 596 41,000  Level Miami Center
Wed 12:24:06 PM 25.6400 -81.5442 170° South 524 603 41,000  Level Miami Center
Wed 12:25:06 PM 25.4989 -81.5156 170° South 524 603 41,000  Level Miami Center
Wed 12:26:06 PM 25.3558 -81.4756 166° South 524 603 41,000  Level Miami Center
Wed 12:27:06 PM 25.2244 -81.4042 154° Southeast 524 603 41,000  Level Miami Center
Wed 12:28:06 PM 25.0953 -81.3283 152° Southeast 524 603 41,000  Level Miami Center
Wed 12:29:06 PM 24.9661 -81.2503 151° Southeast 524 603 41,000  Level Miami Center
Wed 12:30:06 PM 24.8367 -81.1722 151° Southeast 524 603 41,000  Level Miami Center
Wed 12:31:06 PM 24.6986 -81.1103 158° South 531 611 41,000  Level Miami Center
Wed 12:32:06 PM 24.5522 -81.1214 184° South 519 597 41,000  Level Miami Center
Wed 12:33:06 PM 24.4092 -81.1483 190° South 513 590 41,000  Level Miami Center
Wed 12:34:06 PM 24.2686 -81.1731 189° South 519 597 41,000  Level Miami Center
Wed 12:35:06 PM 24.1300 -81.1981 189° South 519 597 41,000  Level Miami Center
Wed 12:36:06 PM 23.9936 -81.2228 189° South 514 592 41,000  Level Miami Center
Wed 12:37:06 PM 23.8589 -81.2544 192° South 502 578 41,000  Level Miami Center
Wed 12:39:00 PM 23.6246 -81.3044 192° South  Level FlightAware Approximate
Wed 12:46:00 PM 22.7598 -81.4352 177° South  Level FlightAware Approximate
Wed 12:47:00 PM 22.6343 -81.4280 177° South  Level FlightAware Approximate
Wed 12:48:00 PM 22.5088 -81.4208 177° South  Level FlightAware Approximate
Wed 12:49:00 PM 22.3833 -81.4137 177° South  Level FlightAware Approximate
Wed 12:50:00 PM 22.2578 -81.4065 177° South  Level FlightAware Approximate
Wed 12:51:00 PM 22.1323 -81.3994 177° South  Level FlightAware Approximate
Wed 12:52:00 PM 22.0068 -81.3922 177° South  Level FlightAware Approximate
Wed 12:53:00 PM 21.8813 -81.3851 177° South  Level FlightAware Approximate
Wed 12:54:00 PM 21.7559 -81.3761 176° South  Level FlightAware Approximate
Wed 12:55:00 PM 21.6305 -81.3664 176° South  Level FlightAware Approximate
Wed 12:56:00 PM 21.5052 -81.3560 176° South  Level FlightAware Approximate
Wed 12:57:00 PM 21.3798 -81.3500 180° South  Level FlightAware Approximate
Wed 12:58:00 PM 21.2541 -81.3500 180° South  Level FlightAware Approximate
Wed 12:59:00 PM 21.1289 -81.3379 175° South  Level FlightAware Approximate
Wed 01:00:00 PM 21.0035 -81.3324 176° South  Level FlightAware Approximate
Wed 01:01:00 PM 20.8781 -81.3234 176° South  Level FlightAware Approximate
Wed 01:02:00 PM 20.7527 -81.3146 176° South  Level FlightAware Approximate
Wed 01:03:00 PM 20.6273 -81.3063 176° South  Level FlightAware Approximate
Wed 01:04:00 PM 20.5018 -81.2989 178° South  Level FlightAware Approximate
Wed 01:05:00 PM 20.3762 -81.2944 178° South  Level FlightAware Approximate
Wed 01:06:00 PM 20.2505 -81.2899 178° South  Level FlightAware Approximate
Wed 01:07:00 PM 20.1249 -81.2854 178° South  Level FlightAware Approximate
Wed 01:08:00 PM 20.0000 -81.2826 90° East  Level FlightAware Approximate
Wed 01:09:00 PM 19.8905 -81.2841 184° South  Level FlightAware Approximate
Wed 01:10:00 PM 19.7652 -81.2937 184° South  Level FlightAware Approximate
Wed 01:11:00 PM 19.6399 -81.3043 185° South  Level FlightAware Approximate
Wed 01:12:00 PM 19.5148 -81.3167 180° South  Level FlightAware Approximate
Wed 01:13:00 PM 19.3926 -81.3333 180° South  Level FlightAware Approximate
Wed 01:14:00 PM 19.2928 -81.3577 191° South  Level Estimated
Wed 01:15:00 PM 19.2928 -81.3577 191° South  Level Estimated
Wed 01:16:00 PM 19.2928 -81.3577 191° South  Level Estimated
Wed 01:17:00 PM 19.2928 -81.3577 191° South  Level Estimated
Wed 01:18:00 PM 19.2928 -81.3577 191° South  Level Estimated
Wed 01:19:00 PM 19.2928 -81.3577 191° South  Level Estimated
Wed 01:20:00 PM 19.2928 -81.3577 191° South  Level Estimated
Wed 01:21:00 PM 19.2928 -81.3577 191° South  Level Estimated
Wed 01:22:00 PM 19.2928 -81.3577 191° South  Level Estimated
Wed 01:23:00 PM 19.2928 -81.3577 191° South  Level Estimated
Wed 01:24:00 PM 19.2928 -81.3577 191° South  Level Estimated
Wed 01:25:00 PM 19.2928 -81.3577 191° South  Level Estimated
Wed 01:26:00 PM 19.2928 -81.3577 191° South  Level Estimated
Wed 01:27:00 PM 19.2928 -81.3577 191° South  Level Estimated
Wed 01:28:00 PM 19.2928 -81.3577 191° South  Level Estimated
Wed 01:29:00 PM 19.2928 -81.3577 191° South  Level Estimated
Wed 01:30:00 PM 19.2928 -81.3577 191° South  Level Estimated
Wed 01:31:00 PM 19.2928 -81.3577 191° South  Level Estimated
Wed 01:32:00 PM 19.2928 -81.3577 191° South  Level Estimated

Login

Don't have an account? Register now (free) for customized features, flight alerts, and more!